createdAt,value
2019-05-15T00:00:18.460Z,63.7
2019-05-15T00:01:25.383Z,63.8
2019-05-15T00:02:34.681Z,64.2
2019-05-15T00:03:43.942Z,63.8
2019-05-15T00:04:53.249Z,63.9
2019-05-15T00:06:02.607Z,64.2
2019-05-15T00:07:11.729Z,64
2019-05-15T00:08:20.984Z,64.1
2019-05-15T00:09:30.254Z,64.6
2019-05-15T00:10:39.685Z,64.6
2019-05-15T00:11:48.807Z,64.6
2019-05-15T00:12:58.184Z,65.5
2019-05-15T00:14:08.841Z,65.1
2019-05-15T00:15:18.393Z,66
2019-05-15T00:16:25.832Z,65.7
2019-05-15T00:17:35.208Z,65.6
2019-05-15T00:18:44.323Z,66.8
2019-05-15T00:19:53.589Z,66.2
2019-05-15T00:21:02.883Z,66.1
2019-05-15T00:22:12.206Z,66.4
2019-05-15T00:23:21.365Z,66.4
2019-05-15T00:24:30.613Z,66.1
2019-05-15T00:25:39.882Z,66.4
2019-05-15T00:26:49.143Z,67.2
2019-05-15T00:27:58.393Z,66.6
2019-05-15T00:29:17.149Z,66.8
2019-05-15T00:30:18.526Z,67.4
2019-05-15T00:31:26.202Z,67.1
2019-05-15T00:32:35.442Z,67.1
2019-05-15T00:33:44.664Z,67.1
2019-05-15T00:34:54.110Z,67.3
2019-05-15T00:36:03.170Z,67.7
2019-05-15T00:37:12.629Z,68.4
2019-05-15T00:38:21.816Z,68.7
2019-05-15T00:39:30.940Z,68.4
2019-05-15T00:40:42.331Z,68.5
2019-05-15T00:41:54.942Z,68.8
2019-05-15T00:42:58.674Z,69.9
2019-05-15T00:44:09.400Z,69.2
2019-05-15T00:45:18.720Z,69.2
2019-05-15T00:46:29.149Z,69.9
2019-05-15T00:47:35.739Z,69.4
2019-05-15T00:48:44.937Z,69.8
2019-05-15T00:49:54.319Z,69.8
2019-05-15T00:51:03.456Z,69.7
2019-05-15T00:52:12.930Z,69.7
2019-05-15T00:53:21.968Z,69.9
2019-05-15T00:54:31.245Z,71.6
2019-05-15T00:55:40.454Z,70.5
2019-05-15T00:56:49.683Z,70.4
2019-05-15T00:57:59.084Z,71
2019-05-15T00:59:08.539Z,72
2019-05-15T01:00:18.728Z,72.4
2019-05-15T01:01:28.826Z,73
2019-05-15T01:02:39.038Z,72.3
2019-05-15T01:04:54.420Z,74.2
2019-05-15T01:06:03.652Z,73.6
2019-05-15T01:07:12.904Z,75
2019-05-15T01:08:22.169Z,74.9
2019-05-15T01:09:31.568Z,75.5
2019-05-15T01:10:40.738Z,75.6
2019-05-15T01:11:49.852Z,77.8
2019-05-15T01:14:12.366Z,77.1
2019-05-15T01:15:18.501Z,77
2019-05-15T01:16:28.301Z,78.9
2019-05-15T01:18:45.320Z,78
2019-05-15T01:19:54.510Z,77.8
2019-05-15T01:21:03.966Z,79.8
2019-05-15T01:22:13.012Z,79.6
2019-05-15T01:23:22.320Z,76.7
2019-05-15T01:24:31.665Z,76.8
2019-05-15T01:25:40.843Z,77.6
2019-05-15T01:26:49.960Z,78.7
2019-05-15T01:27:59.238Z,77.8
2019-05-15T01:29:09.240Z,76.7
2019-05-15T01:30:18.085Z,77.3
2019-05-15T01:31:28.716Z,78.6
2019-05-15T01:32:39.811Z,78.3
2019-05-15T01:33:45.380Z,79
2019-05-15T01:34:54.792Z,80.2
2019-05-15T01:36:03.889Z,80.2
2019-05-15T01:37:13.111Z,79.4
2019-05-15T01:38:22.366Z,81
2019-05-15T01:39:31.502Z,80.6
2019-05-15T01:40:42.006Z,80.5
2019-05-15T01:41:49.964Z,81.6
2019-05-15T01:42:59.299Z,81.1
2019-05-15T01:44:09.000Z,80.9
2019-05-15T01:45:19.011Z,81.9
2019-05-15T01:46:28.727Z,81
2019-05-15T01:47:39.176Z,80.8
2019-05-15T01:48:45.692Z,80.3
2019-05-15T01:49:55.146Z,81.4
2019-05-15T01:51:03.867Z,83.1
2019-05-15T01:52:13.113Z,81.2
2019-05-15T01:53:22.391Z,82.9
2019-05-15T01:54:31.522Z,81.9
2019-05-15T01:55:40.741Z,82
2019-05-15T01:56:50.035Z,82.1
2019-05-15T01:57:59.261Z,82.5
2019-05-15T01:59:08.853Z,82.7
2019-05-15T02:00:18.958Z,83.2
2019-05-15T02:01:28.563Z,84.7
2019-05-15T02:02:39.321Z,84
2019-05-15T02:03:45.489Z,83.4
2019-05-15T02:04:54.636Z,83.4
2019-05-15T02:06:03.928Z,83.6
2019-05-15T02:07:13.058Z,85.9
2019-05-15T02:08:22.642Z,84.8
2019-05-15T02:09:31.530Z,85.6
2019-05-15T02:10:40.935Z,86.2
2019-05-15T02:11:50.058Z,85.8
2019-05-15T02:12:59.288Z,86.4
2019-05-15T02:14:08.530Z,87.4
2019-05-15T02:15:19.114Z,87.5
2019-05-15T02:16:28.881Z,89.3
2019-05-15T02:17:36.246Z,89
2019-05-15T02:18:45.293Z,89.9
2019-05-15T02:19:54.669Z,90.2
2019-05-15T02:21:10.139Z,89.9
2019-05-15T02:22:13.059Z,88.7
2019-05-15T02:23:22.227Z,89.9
2019-05-15T02:24:31.460Z,90.3
2019-05-15T02:25:40.703Z,90.4
2019-05-15T02:26:50.147Z,90.4
2019-05-15T02:27:59.098Z,91
2019-05-15T02:29:13.676Z,90.5
2019-05-15T02:30:32.818Z,91.3
2019-05-15T02:31:30.499Z,90.7
2019-05-15T02:32:39.997Z,90.9
2019-05-15T02:33:45.154Z,91.1
2019-05-15T02:34:54.529Z,90.6
2019-05-15T02:36:03.719Z,91.4
2019-05-15T02:37:12.867Z,91.2
2019-05-15T02:38:22.143Z,91
2019-05-15T02:39:31.241Z,91.9
2019-05-15T02:40:41.238Z,91.6
2019-05-15T02:41:49.812Z,91.2
2019-05-15T02:42:59.341Z,92
2019-05-15T02:44:11.154Z,92.6
2019-05-15T02:45:19.792Z,92.6
2019-05-15T02:46:30.247Z,92.1
2019-05-15T02:47:35.820Z,93
2019-05-15T02:48:44.999Z,93.2
2019-05-15T02:49:54.232Z,94
2019-05-15T02:51:03.388Z,93.9
2019-05-15T02:52:12.609Z,94.1
2019-05-15T02:53:21.841Z,94.7
2019-05-15T02:54:32.186Z,93.9
2019-05-15T02:55:41.408Z,94.3
2019-05-15T02:56:50.663Z,93.4
2019-05-15T02:57:59.838Z,93.3
2019-05-15T02:59:09.428Z,93
2019-05-15T03:00:46.361Z,92.2
2019-05-15T03:01:28.765Z,92.5
2019-05-15T03:02:36.716Z,92.5
2019-05-15T03:03:48.937Z,91.9
2019-05-15T03:04:55.059Z,92.1
2019-05-15T03:06:04.386Z,91.5
2019-05-15T03:07:13.493Z,91.5
2019-05-15T03:08:22.845Z,91.5
2019-05-15T03:09:33.255Z,91
2019-05-15T03:10:41.341Z,90.7
2019-05-15T03:11:50.408Z,90.4
2019-05-15T03:13:00.291Z,90.2
2019-05-15T03:14:09.513Z,90
2019-05-15T03:15:19.635Z,90
2019-05-15T03:16:30.693Z,89.5
2019-05-15T03:17:40.934Z,89.6
2019-05-15T03:18:45.679Z,89.8
2019-05-15T03:19:54.908Z,90
2019-05-15T03:21:04.394Z,90.2
2019-05-15T03:22:13.489Z,89.6
2019-05-15T03:23:22.732Z,89.9
2019-05-15T03:24:31.884Z,89.9
2019-05-15T03:25:41.272Z,89.3
2019-05-15T03:26:50.377Z,90.3
2019-05-15T03:27:59.771Z,89.3
2019-05-15T03:29:10.150Z,88.5
2019-05-15T03:30:22.333Z,88
2019-05-15T03:32:00.466Z,89
2019-05-15T03:32:53.438Z,87.7
2019-05-15T03:33:53.285Z,88.5
2019-05-15T03:35:04.427Z,87.7
2019-05-15T03:36:05.150Z,88.3
2019-05-15T03:37:14.381Z,88.1
2019-05-15T03:38:23.622Z,88.3
2019-05-15T03:39:33.083Z,88.9
2019-05-15T03:41:51.287Z,88.6
2019-05-15T03:43:00.530Z,89.2
2019-05-15T03:44:09.803Z,89.3
2019-05-15T03:45:19.462Z,88.1
2019-05-15T03:47:40.675Z,88.8
2019-05-15T03:48:48.880Z,89.4
2019-05-15T03:49:55.876Z,89.3
2019-05-15T03:51:05.102Z,89.5
2019-05-15T03:52:14.317Z,89.6
2019-05-15T03:53:23.593Z,89
2019-05-15T03:54:32.880Z,90
2019-05-15T03:55:42.023Z,89.2
2019-05-15T03:56:51.196Z,90
2019-05-15T03:58:00.438Z,90
2019-05-15T03:59:09.709Z,89.2
2019-05-15T04:00:19.747Z,89.5
2019-05-15T04:01:38.350Z,88.3
2019-05-15T04:02:39.928Z,88.1
2019-05-15T04:03:49.844Z,87.3
2019-05-15T04:05:01.787Z,87.4
2019-05-15T04:06:05.036Z,88.3
2019-05-15T04:07:15.022Z,87.9
2019-05-15T04:08:23.454Z,87.7
2019-05-15T04:09:33.783Z,88.4
2019-05-15T04:10:43.619Z,87.9
2019-05-15T04:11:52.263Z,88.3
2019-05-15T04:13:01.451Z,88.2
2019-05-15T04:14:10.685Z,88.5
2019-05-15T04:15:20.053Z,88.3
2019-05-15T04:16:29.860Z,88.3
2019-05-15T04:17:40.731Z,88.2
2019-05-15T04:18:49.362Z,88.3
2019-05-15T04:19:59.134Z,87.1
2019-05-15T04:21:09.461Z,86.6
2019-05-15T04:22:15.286Z,86.2
2019-05-15T04:23:24.512Z,84.3
2019-05-15T04:24:33.746Z,84
2019-05-15T04:25:43.001Z,83.5
2019-05-15T04:26:52.295Z,83.7
2019-05-15T04:28:01.455Z,83.1
2019-05-15T04:29:10.725Z,82.9
2019-05-15T04:30:19.937Z,82.3
2019-05-15T04:31:50.171Z,81.3
2019-05-15T04:32:40.231Z,80
2019-05-15T04:33:49.362Z,79.9
2019-05-15T04:34:59.664Z,79.9
2019-05-15T04:36:10.095Z,78.8
2019-05-15T04:38:24.613Z,77.3
2019-05-15T04:39:33.866Z,78.4
2019-05-15T04:40:43.892Z,77.7
2019-05-15T04:41:52.389Z,77.4
2019-05-15T04:43:01.632Z,77.3
2019-05-15T04:44:11.218Z,76.4
2019-05-15T04:46:30.213Z,73.3
2019-05-15T04:47:40.169Z,72.2
2019-05-15T04:48:50.724Z,72.7
2019-05-15T04:49:59.155Z,72.5
2019-05-15T04:51:10.057Z,72.8
2019-05-15T04:52:19.568Z,73.1
2019-05-15T04:53:24.987Z,72.1
2019-05-15T04:54:34.220Z,73.1
2019-05-15T04:55:43.739Z,71.7
2019-05-15T04:56:53.441Z,72
2019-05-15T04:58:02.110Z,72.3
2019-05-15T04:59:11.313Z,71.7
2019-05-15T05:00:20.488Z,72.6
2019-05-15T05:01:29.769Z,71.6
2019-05-15T05:02:40.718Z,70.7
2019-05-15T05:03:49.857Z,71.8
2019-05-15T05:04:58.958Z,72
2019-05-15T05:06:10.153Z,72.1
2019-05-15T05:07:18.997Z,72
2019-05-15T05:08:25.381Z,71.3
2019-05-15T05:09:34.656Z,71.1
2019-05-15T05:10:45.007Z,70.1
2019-05-15T05:11:53.178Z,70.7
2019-05-15T05:13:02.522Z,70.8
2019-05-15T05:14:11.749Z,70
2019-05-15T05:15:21.078Z,69.2
2019-05-15T05:16:30.323Z,69.2
2019-05-15T05:17:39.629Z,68.3
2019-05-15T05:18:49.071Z,67.6
2019-05-15T05:19:58.441Z,66.8
2019-05-15T05:21:07.889Z,67.5
2019-05-15T05:22:18.816Z,66.7
2019-05-15T05:24:35.288Z,66.7
2019-05-15T05:25:44.585Z,65.7
2019-05-15T05:26:53.923Z,66.2
2019-05-15T05:28:03.239Z,65.5
2019-05-15T05:29:12.493Z,64.6
2019-05-15T05:30:21.994Z,65.5
2019-05-15T05:31:31.083Z,65.2
2019-05-15T05:32:40.411Z,65.6
2019-05-15T05:33:49.758Z,64.3
2019-05-15T05:36:08.310Z,64.1
2019-05-15T05:37:18.625Z,64.5
2019-05-15T05:38:28.380Z,64.6
2019-05-15T05:39:36.255Z,64.6
2019-05-15T05:40:50.142Z,64.6
2019-05-15T05:41:54.969Z,65.2
2019-05-15T05:43:04.430Z,63.7
2019-05-15T05:44:13.514Z,64.3
2019-05-15T05:45:22.865Z,63.5
2019-05-15T05:46:32.179Z,63.2
2019-05-15T05:47:41.470Z,63.4
2019-05-15T05:48:50.827Z,62
2019-05-15T05:50:00.155Z,63.3
2019-05-15T05:51:09.598Z,61.3
2019-05-15T05:52:18.857Z,62.6
2019-05-15T05:53:28.881Z,62.4
2019-05-15T05:54:38.422Z,62.2
2019-05-15T05:55:52.575Z,59.9
2019-05-15T05:56:58.703Z,62.1
2019-05-15T05:58:08.259Z,61.5
2019-05-15T05:59:14.947Z,60.8
2019-05-15T06:00:24.177Z,60.2
2019-05-15T06:01:43.221Z,61.6
2019-05-15T06:02:51.954Z,59.5
2019-05-15T06:03:52.253Z,61.1
2019-05-15T06:05:01.773Z,59.2
2019-05-15T06:06:10.860Z,58.9
2019-05-15T06:07:20.223Z,58
2019-05-15T06:08:29.519Z,59.5
2019-05-15T06:09:39.013Z,57.5
2019-05-15T06:10:49.923Z,59.8
2019-05-15T06:11:58.433Z,60.4
2019-05-15T06:13:08.917Z,59.7
2019-05-15T06:14:18.495Z,58.1
2019-05-15T06:15:25.654Z,58.7
2019-05-15T06:16:35.309Z,57.5
2019-05-15T06:17:44.443Z,57.4
2019-05-15T06:18:53.806Z,57.2
2019-05-15T06:20:03.103Z,57
2019-05-15T06:21:12.466Z,56.6
2019-05-15T06:22:21.909Z,56.9
2019-05-15T06:23:36.166Z,56.2
2019-05-15T06:24:40.646Z,57.3
2019-05-15T06:25:50.012Z,57.5
2019-05-15T06:26:59.348Z,56.3
2019-05-15T06:28:09.277Z,54.9
2019-05-15T06:29:18.183Z,55.1
2019-05-15T06:30:31.023Z,55.7
2019-05-15T06:31:38.993Z,55.4
2019-05-15T06:33:08.462Z,54.3
2019-05-15T06:33:58.212Z,54.8
2019-05-15T06:35:04.982Z,54.7
2019-05-15T06:36:14.401Z,55.1
2019-05-15T06:37:23.771Z,54.7
2019-05-15T06:38:33.165Z,54
2019-05-15T06:39:43.025Z,54.1
2019-05-15T06:42:01.830Z,52.8
2019-05-15T06:43:10.757Z,53.3
2019-05-15T06:44:20.219Z,52.2
2019-05-15T06:45:30.020Z,52.4
2019-05-15T06:46:39.468Z,52.6
2019-05-15T06:47:48.484Z,50.4
2019-05-15T06:48:58.322Z,50.8
2019-05-15T06:50:08.780Z,52.6
2019-05-15T06:51:18.386Z,53
2019-05-15T06:52:28.598Z,52.3
2019-05-15T06:53:35.690Z,49.8
2019-05-15T06:54:45.205Z,53.4
2019-05-15T06:55:54.726Z,50.6
2019-05-15T06:57:04.645Z,47.6
2019-05-15T06:58:13.746Z,47.4
2019-05-15T06:59:23.312Z,44.8
2019-05-15T07:01:42.491Z,45.5
2019-05-15T07:02:52.136Z,47.3
2019-05-15T07:04:03.641Z,47.2
2019-05-15T07:05:15.266Z,46.3
2019-05-15T07:06:28.856Z,46.3
2019-05-15T07:07:39.078Z,47.2
2019-05-15T07:08:50.158Z,45.9
2019-05-15T07:10:02.871Z,47.6
2019-05-15T07:11:14.121Z,48.8
2019-05-15T07:12:25.288Z,46.4
2019-05-15T07:13:38.537Z,45.7
2019-05-15T07:14:48.934Z,46.4
2019-05-15T07:16:00.296Z,44.8
2019-05-15T07:17:12.193Z,46.4
2019-05-15T07:18:23.732Z,47.2
2019-05-15T07:19:35.502Z,48.6
2019-05-15T07:20:49.143Z,46.8
2019-05-15T07:21:58.936Z,47.4
2019-05-15T07:23:10.658Z,47.5
2019-05-15T07:24:24.471Z,48.8
2019-05-15T07:25:39.293Z,48
2019-05-15T07:26:52.081Z,46.4
2019-05-15T07:28:05.730Z,45.5
2019-05-15T07:29:19.121Z,44.3
2019-05-15T07:30:29.287Z,43.8
2019-05-15T07:31:43.062Z,44
2019-05-15T07:32:58.827Z,42.5
2019-05-15T07:34:10.613Z,43.5
2019-05-15T07:35:24.747Z,41.9
2019-05-15T07:36:39.255Z,41.5
2019-05-15T07:37:52.264Z,42.3
2019-05-15T07:39:08.489Z,42.1
2019-05-15T07:40:24.572Z,42.8
2019-05-15T07:41:39.373Z,43.3
2019-05-15T07:42:49.244Z,43.6
2019-05-15T07:44:01.393Z,44.9
2019-05-15T07:45:14.965Z,43.4
2019-05-15T07:46:29.063Z,43.4
2019-05-15T07:47:42.850Z,43.2
2019-05-15T07:48:58.515Z,42.8
2019-05-15T07:50:10.215Z,43.3
2019-05-15T07:51:24.290Z,42.5
2019-05-15T07:52:39.752Z,42.7
2019-05-15T07:55:05.494Z,40.5
2019-05-15T07:56:19.446Z,41.1
2019-05-15T07:57:33.230Z,40.2
2019-05-15T07:58:52.889Z,41.3
2019-05-15T08:00:01.049Z,41.9
2019-05-15T08:01:14.998Z,42.5
2019-05-15T08:02:28.756Z,40.6
2019-05-15T08:04:57.742Z,42.3
2019-05-15T08:06:10.262Z,43.9
2019-05-15T08:07:23.841Z,45.1
2019-05-15T08:08:39.658Z,43.9
2019-05-15T08:11:23.650Z,45.6
2019-05-15T08:12:19.481Z,44.2
2019-05-15T08:13:32.547Z,44.9
2019-05-15T08:14:50.810Z,44.1
2019-05-15T08:15:58.190Z,45
2019-05-15T08:17:11.478Z,45.9
2019-05-15T08:18:22.813Z,46.1
2019-05-15T08:19:34.393Z,46.8
2019-05-15T08:20:44.296Z,50
2019-05-15T08:21:53.640Z,47
2019-05-15T08:23:03.150Z,50.1
2019-05-15T08:24:12.784Z,47.8
2019-05-15T08:25:35.234Z,47.5
2019-05-15T08:26:32.298Z,45.1
2019-05-15T08:27:41.356Z,47.5
2019-05-15T08:28:50.891Z,49.6
2019-05-15T08:30:00.520Z,50.6
2019-05-15T08:31:12.822Z,44.6
2019-05-15T08:32:23.515Z,42.9
2019-05-15T08:33:35.171Z,42.7
2019-05-15T08:34:48.156Z,41.8
2019-05-15T08:35:59.033Z,42.9
2019-05-15T08:37:12.037Z,44.9
2019-05-15T08:38:25.631Z,43.1
2019-05-15T08:39:39.272Z,42.5
2019-05-15T08:40:55.781Z,40.4
2019-05-15T08:42:08.133Z,38.8
2019-05-15T08:43:20.302Z,37.3
2019-05-15T08:44:34.014Z,36.5
2019-05-15T08:47:01.195Z,38.6
2019-05-15T08:48:14.929Z,39.7
2019-05-15T08:49:28.503Z,41.4
2019-05-15T08:50:36.288Z,49.1
2019-05-15T08:51:48.837Z,43.2
2019-05-15T08:52:59.648Z,43.1
2019-05-15T08:54:11.350Z,42
2019-05-15T08:55:22.911Z,42
2019-05-15T08:56:34.580Z,42.8
2019-05-15T08:57:56.505Z,42.6
2019-05-15T08:58:58.182Z,41.7
2019-05-15T09:00:10.119Z,40.5
2019-05-15T09:01:21.223Z,40.4
2019-05-15T09:02:32.825Z,40.6
2019-05-15T09:03:49.157Z,40.5
2019-05-15T09:04:58.226Z,39.9
2019-05-15T09:06:11.785Z,40.2
2019-05-15T09:07:25.428Z,39.5
2019-05-15T09:08:39.505Z,38.9
2019-05-15T09:09:53.101Z,38.7
2019-05-15T09:11:12.198Z,39
2019-05-15T09:12:19.042Z,39.3
2019-05-15T09:13:29.508Z,41.4
2019-05-15T09:14:39.437Z,41.8
2019-05-15T09:15:51.204Z,41.9
2019-05-15T09:17:00.917Z,48
2019-05-15T09:18:16.523Z,43.5
2019-05-15T09:19:28.249Z,41.4
2019-05-15T09:20:41.823Z,39.5
2019-05-15T09:21:55.512Z,39.2
2019-05-15T09:23:09.139Z,39.8
2019-05-15T09:24:20.931Z,40.7
2019-05-15T09:25:34.513Z,39.6
2019-05-15T09:26:49.068Z,39.5
2019-05-15T09:28:00.056Z,39.5
2019-05-15T09:29:13.591Z,40
2019-05-15T09:30:28.744Z,38.5
2019-05-15T09:31:41.210Z,36.9
2019-05-15T09:32:54.733Z,36.5
2019-05-15T09:34:09.317Z,35.1
2019-05-15T09:35:22.335Z,35.6
2019-05-15T09:36:36.027Z,34.8
2019-05-15T09:37:49.772Z,34.7
2019-05-15T09:39:03.611Z,35.2
2019-05-15T09:41:32.947Z,37
2019-05-15T09:42:48.897Z,37.9
2019-05-15T09:44:00.648Z,38.6
2019-05-15T09:45:14.494Z,36
2019-05-15T09:46:29.330Z,35.8
2019-05-15T09:47:44.163Z,35.3
2019-05-15T09:48:59.914Z,35.2
2019-05-15T09:50:15.855Z,35.6
2019-05-15T09:51:31.563Z,34.3
2019-05-15T09:52:50.443Z,32.8
2019-05-15T09:54:03.450Z,33.1
2019-05-15T09:55:19.100Z,33.5
2019-05-15T09:56:34.956Z,33.8
2019-05-15T09:57:50.899Z,34
2019-05-15T09:59:09.213Z,33.5
2019-05-15T10:00:22.977Z,33.2
2019-05-15T10:01:39.687Z,33
2019-05-15T10:02:54.656Z,34
2019-05-15T10:04:10.402Z,34.3
2019-05-15T10:06:40.043Z,34.4
2019-05-15T10:07:55.825Z,33.8
2019-05-15T10:09:11.683Z,33.6
2019-05-15T10:10:32.512Z,33
2019-05-15T10:11:43.408Z,35.1
2019-05-15T10:12:59.658Z,36.1
2019-05-15T10:14:13.108Z,35.2
2019-05-15T10:15:26.951Z,36
2019-05-15T10:16:40.825Z,37.1
2019-05-15T10:17:54.959Z,40.2
2019-05-15T10:20:22.259Z,38.4
2019-05-15T10:21:35.995Z,38.5
2019-05-15T10:22:49.822Z,38.3
2019-05-15T10:24:03.811Z,38.7
2019-05-15T10:25:19.227Z,41.8
2019-05-15T10:26:31.043Z,42.2
2019-05-15T10:27:44.823Z,43.7
2019-05-15T10:28:58.645Z,44.7
2019-05-15T10:30:12.325Z,40.8
2019-05-15T10:31:24.279Z,45.1
2019-05-15T10:32:35.795Z,44
2019-05-15T10:33:49.501Z,44.8
2019-05-15T10:35:02.963Z,43.5
2019-05-15T10:36:19.243Z,43.2
2019-05-15T10:37:28.739Z,44.5
2019-05-15T10:38:40.097Z,44.6
2019-05-15T10:41:14.929Z,43.5
2019-05-15T10:42:19.557Z,44
2019-05-15T10:43:28.979Z,45.7
2019-05-15T10:44:42.312Z,45.2
2019-05-15T10:45:54.928Z,44.3
2019-05-15T10:47:08.974Z,46.5
2019-05-15T10:49:34.783Z,45.3
2019-05-15T10:50:48.632Z,44.7
2019-05-15T10:52:02.059Z,45.7
2019-05-15T10:53:13.717Z,47.7
2019-05-15T10:54:29.386Z,46.3
2019-05-15T10:56:54.605Z,44.5
2019-05-15T10:58:17.227Z,44.5
2019-05-15T10:59:21.878Z,44.3
2019-05-15T11:00:35.779Z,43.6
2019-05-15T11:01:49.151Z,43.6
2019-05-15T11:03:02.920Z,42.9
2019-05-15T11:04:14.430Z,45.2
2019-05-15T11:05:45.518Z,45.3
2019-05-15T11:06:39.708Z,43.5
2019-05-15T11:07:53.312Z,43.8
2019-05-15T11:09:08.747Z,43.1
2019-05-15T11:10:23.209Z,42.7
2019-05-15T11:11:34.305Z,42
2019-05-15T11:14:01.626Z,41.3
2019-05-15T11:15:15.242Z,42.3
2019-05-15T11:16:28.859Z,41.7
2019-05-15T11:17:43.699Z,42
2019-05-15T11:18:58.676Z,42.8
2019-05-15T11:20:11.437Z,41.7
2019-05-15T11:21:24.596Z,42.2
2019-05-15T11:23:49.558Z,43.8
2019-05-15T11:24:59.796Z,44.3
2019-05-15T11:26:11.263Z,45.2
2019-05-15T11:27:24.825Z,45.3
2019-05-15T11:28:39.457Z,44
2019-05-15T11:29:48.121Z,45
2019-05-15T11:31:00.357Z,43.9
2019-05-15T11:32:11.396Z,43.6
2019-05-15T11:33:21.102Z,49.5
2019-05-15T11:34:34.522Z,44.7
2019-05-15T11:36:05.298Z,43.1
2019-05-15T11:37:03.968Z,43.1
2019-05-15T11:38:19.730Z,42.9
2019-05-15T11:39:30.983Z,43
2019-05-15T11:40:51.867Z,42.5
2019-05-15T11:41:55.076Z,42.2
2019-05-15T11:43:08.731Z,42.9
2019-05-15T11:44:19.448Z,41.6
2019-05-15T11:45:31.202Z,44
2019-05-15T11:46:42.724Z,43.3
2019-05-15T11:47:52.343Z,48.8
2019-05-15T11:49:01.928Z,48.3
2019-05-15T11:50:11.552Z,49
2019-05-15T11:51:23.208Z,47.4
2019-05-15T11:52:40.052Z,50.7
2019-05-15T11:53:44.490Z,44.7
2019-05-15T11:54:59.115Z,45.4
2019-05-15T11:56:09.831Z,45.6
2019-05-15T11:57:45.906Z,44.8
2019-05-15T11:59:55.665Z,47.9
2019-05-15T12:00:58.099Z,50
2019-05-15T12:03:25.104Z,43.9
2019-05-15T12:04:35.100Z,44.2
2019-05-15T12:05:48.533Z,43.6
2019-05-15T12:07:02.826Z,42.3
2019-05-15T12:08:18.844Z,42
2019-05-15T12:09:29.525Z,42.4
2019-05-15T12:10:45.839Z,42.3
2019-05-15T12:11:56.706Z,42.3
2019-05-15T12:13:10.302Z,42.6
2019-05-15T12:14:24.174Z,42.2
2019-05-15T12:15:39.109Z,41.6
2019-05-15T12:17:12.094Z,40.7
2019-05-15T12:18:05.028Z,41.1
2019-05-15T12:19:18.939Z,40.4
2019-05-15T12:20:32.534Z,40.1
2019-05-15T12:21:49.127Z,39.5
2019-05-15T12:22:59.651Z,39.4
2019-05-15T12:24:13.364Z,41.1
2019-05-15T12:25:31.801Z,42.4
2019-05-15T12:26:39.881Z,45.5
2019-05-15T12:27:50.257Z,44.4
2019-05-15T12:29:03.841Z,43
2019-05-15T12:30:15.935Z,42.4
2019-05-15T12:31:27.987Z,43.2
2019-05-15T12:32:40.887Z,42.9
2019-05-15T12:33:54.479Z,43.2
2019-05-15T12:35:08.249Z,42.6
2019-05-15T12:36:52.916Z,41.1
2019-05-15T14:00:59.075Z,57.2
2019-05-15T14:01:53.150Z,61.6
2019-05-15T14:02:54.322Z,59.6
2019-05-15T14:04:01.364Z,57
2019-05-15T14:05:10.600Z,63.5
2019-05-15T14:06:19.915Z,68.3
2019-05-15T14:07:49.155Z,71.5
2019-05-15T14:08:38.805Z,70
2019-05-15T14:09:48.459Z,65.7
2019-05-15T14:10:58.456Z,62
2019-05-15T14:12:13.099Z,63
2019-05-15T14:13:19.091Z,59.8
2019-05-15T14:14:28.794Z,66
2019-05-15T14:15:38.492Z,67.6
2019-05-15T14:16:45.162Z,64.6
2019-05-15T14:17:54.953Z,61.5
2019-05-15T14:19:04.133Z,65.7
2019-05-15T14:20:13.703Z,63.8
2019-05-15T14:21:23.067Z,63.7
2019-05-15T14:22:32.608Z,63.4
2019-05-15T14:23:42.099Z,63.6
2019-05-15T14:26:19.754Z,62.9
2019-05-15T14:27:10.515Z,63.1
2019-05-15T14:28:20.095Z,62.1
2019-05-15T14:29:29.480Z,62.4
2019-05-15T14:30:38.965Z,61.6
2019-05-15T14:31:48.546Z,61.5
2019-05-15T14:33:00.303Z,60.5
2019-05-15T14:34:08.972Z,62.1
2019-05-15T14:35:18.148Z,59.8
2019-05-15T14:36:28.897Z,58.1
2019-05-15T14:37:35.923Z,58
2019-05-15T14:38:45.417Z,58.3
2019-05-15T14:39:55.029Z,57.8
2019-05-15T14:41:04.415Z,57.2
2019-05-15T14:42:14.011Z,58.7
2019-05-15T14:43:23.494Z,58.5
2019-05-15T14:44:33.160Z,57
2019-05-15T14:45:42.451Z,55.3
2019-05-15T14:46:51.998Z,55.2
2019-05-15T14:48:01.506Z,54.7
2019-05-15T14:49:11.036Z,54.7
2019-05-15T14:50:20.609Z,55
2019-05-15T14:51:30.378Z,55.2
2019-05-15T14:52:39.889Z,55.8
2019-05-15T14:53:49.506Z,56.2
2019-05-15T14:55:00.285Z,55.1
2019-05-15T14:56:09.071Z,53.1
2019-05-15T14:57:18.508Z,52.8
2019-05-15T14:58:27.489Z,52.9
2019-05-15T14:59:38.341Z,53.8
2019-05-15T15:00:50.323Z,51.7
2019-05-15T15:01:58.169Z,52
2019-05-15T15:03:05.390Z,50.9
2019-05-15T15:04:14.888Z,50.9
2019-05-15T15:05:24.573Z,51.9
2019-05-15T15:06:34.512Z,51
2019-05-15T15:07:43.544Z,50.6
2019-05-15T15:08:53.059Z,50.1
2019-05-15T15:10:02.634Z,50
2019-05-15T15:11:12.230Z,52.2
2019-05-15T15:12:21.707Z,50.5
2019-05-15T15:13:31.230Z,51.1
2019-05-15T15:14:40.667Z,51.1
2019-05-15T15:15:50.268Z,49.5
2019-05-15T15:16:59.730Z,50.1
2019-05-15T15:18:09.279Z,51.4
2019-05-15T15:19:18.838Z,50.1
2019-05-15T15:20:28.755Z,50.5
2019-05-15T15:21:38.672Z,50.9
2019-05-15T15:22:48.778Z,51.9
2019-05-15T15:23:58.934Z,50.5
2019-05-15T15:25:09.930Z,50.6
2019-05-15T15:26:19.347Z,51.5
2019-05-15T15:27:28.195Z,51.6
2019-05-15T15:28:36.643Z,51.3
2019-05-15T15:29:48.412Z,50.7
2019-05-15T15:30:58.287Z,49.8
2019-05-15T15:32:05.255Z,50.2
2019-05-15T15:33:14.805Z,50.7
2019-05-15T15:34:24.362Z,50.7
2019-05-15T15:35:33.961Z,50.1
2019-05-15T15:36:43.599Z,49.1
2019-05-15T15:37:53.030Z,49.5
2019-05-15T15:39:03.715Z,49.4
2019-05-15T15:40:13.387Z,49.6
2019-05-15T15:41:22.933Z,50.5
2019-05-15T15:42:32.439Z,49.8
2019-05-15T15:43:41.910Z,50.1
2019-05-15T15:44:51.474Z,49.8
2019-05-15T15:46:00.946Z,48.9
2019-05-15T15:47:11.188Z,49.5
2019-05-15T15:48:20.076Z,48.4
2019-05-15T15:49:29.556Z,47.8
2019-05-15T15:50:39.079Z,48.6
2019-05-15T15:51:48.923Z,48.2
2019-05-15T15:52:59.510Z,47.7
2019-05-15T15:54:08.682Z,47.4
2019-05-15T15:55:18.692Z,47.6
2019-05-15T15:56:29.235Z,48.3
2019-05-15T15:57:36.200Z,46
2019-05-15T15:58:45.725Z,48.3
2019-05-15T15:59:55.191Z,48.3
2019-05-15T16:01:04.860Z,47.8
2019-05-15T16:02:14.218Z,47.7
2019-05-15T16:03:23.840Z,48
2019-05-15T16:04:33.215Z,47.9
2019-05-15T16:05:42.742Z,48.3
2019-05-15T16:06:52.236Z,49.4
2019-05-15T16:08:01.717Z,47.7
2019-05-15T16:09:11.401Z,47.3
2019-05-15T16:10:20.860Z,47.7
2019-05-15T16:11:30.299Z,47.4
2019-05-15T16:12:39.820Z,47.5
2019-05-15T16:13:50.009Z,47
2019-05-15T16:14:58.784Z,47.1
2019-05-15T16:16:08.809Z,47.5
2019-05-15T16:17:18.305Z,47.9
2019-05-15T16:18:29.122Z,47.3
2019-05-15T16:19:39.086Z,48.2
2019-05-15T16:20:48.690Z,47.5
2019-05-15T16:21:55.878Z,48.1
2019-05-15T16:23:05.348Z,48.5
2019-05-15T16:24:21.560Z,48.9
2019-05-15T16:25:24.230Z,48.9
2019-05-15T16:26:33.998Z,49
2019-05-15T16:27:43.213Z,48.2
2019-05-15T16:28:52.741Z,48.7
2019-05-15T16:30:02.337Z,49.1
2019-05-15T16:31:11.823Z,48.5
2019-05-15T16:32:22.088Z,48.8
2019-05-15T16:33:30.822Z,49.4
2019-05-15T16:34:40.245Z,48.5
2019-05-15T16:35:49.689Z,48.3
2019-05-15T16:36:59.235Z,49
2019-05-15T16:38:09.630Z,48.7
2019-05-15T16:39:18.449Z,48.8
2019-05-15T16:40:28.944Z,49
2019-05-15T16:41:38.436Z,49.5
2019-05-15T16:42:49.038Z,49.8
2019-05-15T16:43:57.918Z,49.1
2019-05-15T16:45:05.690Z,49.9
2019-05-15T16:46:15.801Z,50
2019-05-15T16:47:24.800Z,50
2019-05-15T16:48:34.200Z,49.8
2019-05-15T16:49:43.645Z,50
2019-05-15T16:50:53.149Z,51.3
2019-05-15T16:52:02.675Z,51.6
2019-05-15T16:53:12.051Z,52
2019-05-15T16:54:21.611Z,51.7
2019-05-15T16:55:31.146Z,52.1
2019-05-15T16:56:40.507Z,52.3
2019-05-15T16:57:50.008Z,53
2019-05-15T16:58:59.896Z,55.3
2019-05-15T17:00:10.063Z,57.1
2019-05-15T17:01:18.906Z,60.8
2019-05-15T17:03:38.192Z,59.5
2019-05-15T17:04:49.004Z,57.5
2019-05-15T17:05:58.964Z,57.2
2019-05-15T17:07:05.796Z,57.1
2019-05-15T17:08:17.388Z,57
2019-05-15T17:09:24.758Z,57.2
2019-05-15T17:10:34.204Z,57.4
2019-05-15T17:11:43.711Z,58
2019-05-15T17:12:53.171Z,58.4
2019-05-15T17:14:02.634Z,58.7
2019-05-15T17:15:12.144Z,59.2
2019-05-15T17:16:21.644Z,60.8
2019-05-15T17:17:31.142Z,62.8
2019-05-15T17:18:40.766Z,61.8
2019-05-15T17:19:50.009Z,61.4
2019-05-15T17:20:59.501Z,59.5
2019-05-15T17:22:09.624Z,59.9
2019-05-15T17:23:19.054Z,61.7
2019-05-15T17:24:27.950Z,60.5
2019-05-15T17:25:38.471Z,60.7
2019-05-15T17:26:48.580Z,61
2019-05-15T17:27:58.477Z,60.8
2019-05-15T17:29:05.748Z,60
2019-05-15T17:30:15.153Z,60
2019-05-15T17:31:24.622Z,59.3
2019-05-15T17:32:34.132Z,60.2
2019-05-15T17:33:43.556Z,60
2019-05-15T17:34:52.956Z,59.9
2019-05-15T17:36:02.498Z,60.3
2019-05-15T17:37:11.868Z,60.1
2019-05-15T17:38:21.313Z,60.5
2019-05-15T17:39:38.782Z,60.4
2019-05-15T17:40:40.375Z,60.9
2019-05-15T17:41:49.664Z,61